sensor_id;sensor_type;location;lat;lon;timestamp;P1;durP1;ratioP1;P2;durP2;ratioP2
53309;SDS011;39197;53.200;5.792;2023-04-16T00:01:32;90.90;;;36.42;;
53309;SDS011;39197;53.200;5.792;2023-04-16T00:03:58;75.55;;;30.20;;
53309;SDS011;39197;53.200;5.792;2023-04-16T00:06:23;89.68;;;36.10;;
53309;SDS011;39197;53.200;5.792;2023-04-16T00:08:49;64.47;;;25.33;;
53309;SDS011;39197;53.200;5.792;2023-04-16T00:11:15;58.58;;;25.35;;
53309;SDS011;39197;53.200;5.792;2023-04-16T00:13:41;74.38;;;34.75;;
53309;SDS011;39197;53.200;5.792;2023-04-16T00:16:07;68.47;;;31.23;;
53309;SDS011;39197;53.200;5.792;2023-04-16T00:18:33;78.80;;;40.03;;
53309;SDS011;39197;53.200;5.792;2023-04-16T00:20:58;63.75;;;29.77;;
53309;SDS011;39197;53.200;5.792;2023-04-16T00:23:24;63.42;;;28.48;;
53309;SDS011;39197;53.200;5.792;2023-04-16T00:25:50;55.33;;;22.30;;
53309;SDS011;39197;53.200;5.792;2023-04-16T00:28:16;58.80;;;26.58;;
53309;SDS011;39197;53.200;5.792;2023-04-16T00:30:41;66.78;;;28.70;;
53309;SDS011;39197;53.200;5.792;2023-04-16T00:33:07;71.72;;;33.60;;
53309;SDS011;39197;53.200;5.792;2023-04-16T00:35:33;58.13;;;25.95;;
53309;SDS011;39197;53.200;5.792;2023-04-16T00:37:58;74.93;;;28.73;;
53309;SDS011;39197;53.200;5.792;2023-04-16T00:40:27;67.75;;;27.83;;
53309;SDS011;39197;53.200;5.792;2023-04-16T00:42:53;62.15;;;27.92;;
53309;SDS011;39197;53.200;5.792;2023-04-16T00:45:19;66.82;;;31.20;;
53309;SDS011;39197;53.200;5.792;2023-04-16T00:47:44;79.65;;;36.63;;
53309;SDS011;39197;53.200;5.792;2023-04-16T00:50:10;59.58;;;26.45;;
53309;SDS011;39197;53.200;5.792;2023-04-16T00:52:36;73.68;;;33.35;;
53309;SDS011;39197;53.200;5.792;2023-04-16T00:55:04;80.35;;;38.40;;
53309;SDS011;39197;53.200;5.792;2023-04-16T00:57:31;64.55;;;29.92;;
53309;SDS011;39197;53.200;5.792;2023-04-16T00:59:56;65.65;;;31.90;;
53309;SDS011;39197;53.200;5.792;2023-04-16T01:02:22;61.83;;;27.73;;
53309;SDS011;39197;53.200;5.792;2023-04-16T01:04:48;68.70;;;29.33;;
53309;SDS011;39197;53.200;5.792;2023-04-16T01:07:15;71.80;;;39.33;;
53309;SDS011;39197;53.200;5.792;2023-04-16T01:09:41;80.30;;;35.03;;
53309;SDS011;39197;53.200;5.792;2023-04-16T01:12:06;55.08;;;28.08;;
53309;SDS011;39197;53.200;5.792;2023-04-16T01:14:32;58.72;;;26.23;;
53309;SDS011;39197;53.200;5.792;2023-04-16T01:17:00;64.50;;;31.48;;
53309;SDS011;39197;53.200;5.792;2023-04-16T01:19:27;56.58;;;25.13;;
53309;SDS011;39197;53.200;5.792;2023-04-16T01:21:55;69.75;;;35.67;;
53309;SDS011;39197;53.200;5.792;2023-04-16T01:24:21;75.70;;;35.65;;
53309;SDS011;39197;53.200;5.792;2023-04-16T01:26:46;97.65;;;46.65;;
53309;SDS011;39197;53.200;5.792;2023-04-16T01:29:12;76.82;;;33.15;;
53309;SDS011;39197;53.200;5.792;2023-04-16T01:31:37;67.18;;;27.50;;
53309;SDS011;39197;53.200;5.792;2023-04-16T01:34:03;90.70;;;44.00;;
53309;SDS011;39197;53.200;5.792;2023-04-16T01:36:29;110.00;;;50.45;;
53309;SDS011;39197;53.200;5.792;2023-04-16T01:38:54;85.15;;;36.72;;
53309;SDS011;39197;53.200;5.792;2023-04-16T01:41:20;67.13;;;26.77;;
53309;SDS011;39197;53.200;5.792;2023-04-16T01:43:45;81.43;;;30.73;;
53309;SDS011;39197;53.200;5.792;2023-04-16T01:46:13;95.28;;;43.33;;
53309;SDS011;39197;53.200;5.792;2023-04-16T01:48:44;91.60;;;36.97;;
53309;SDS011;39197;53.200;5.792;2023-04-16T01:51:10;93.88;;;44.75;;
53309;SDS011;39197;53.200;5.792;2023-04-16T01:53:36;77.93;;;31.13;;
53309;SDS011;39197;53.200;5.792;2023-04-16T01:56:02;75.13;;;28.77;;
53309;SDS011;39197;53.200;5.792;2023-04-16T01:58:28;78.82;;;32.05;;
53309;SDS011;39197;53.200;5.792;2023-04-16T02:00:54;79.22;;;31.20;;
53309;SDS011;39197;53.200;5.792;2023-04-16T02:03:20;79.80;;;30.38;;
53309;SDS011;39197;53.200;5.792;2023-04-16T02:05:48;75.38;;;34.20;;
53309;SDS011;39197;53.200;5.792;2023-04-16T02:08:14;98.72;;;39.80;;
53309;SDS011;39197;53.200;5.792;2023-04-16T02:10:40;112.85;;;50.45;;
53309;SDS011;39197;53.200;5.792;2023-04-16T02:13:05;119.32;;;56.00;;
53309;SDS011;39197;53.200;5.792;2023-04-16T02:15:31;102.20;;;47.53;;
53309;SDS011;39197;53.200;5.792;2023-04-16T02:17:56;92.78;;;33.80;;
53309;SDS011;39197;53.200;5.792;2023-04-16T02:20:22;93.05;;;44.95;;
53309;SDS011;39197;53.200;5.792;2023-04-16T02:22:48;93.32;;;42.92;;
53309;SDS011;39197;53.200;5.792;2023-04-16T02:25:13;111.60;;;49.03;;
53309;SDS011;39197;53.200;5.792;2023-04-16T02:27:40;87.00;;;39.58;;
53309;SDS011;39197;53.200;5.792;2023-04-16T02:30:06;89.40;;;39.33;;
53309;SDS011;39197;53.200;5.792;2023-04-16T02:32:32;79.15;;;31.52;;
53309;SDS011;39197;53.200;5.792;2023-04-16T02:34:57;97.15;;;44.53;;
53309;SDS011;39197;53.200;5.792;2023-04-16T02:37:23;98.22;;;42.25;;
53309;SDS011;39197;53.200;5.792;2023-04-16T02:39:49;112.38;;;51.60;;
53309;SDS011;39197;53.200;5.792;2023-04-16T02:42:15;88.25;;;34.45;;
53309;SDS011;39197;53.200;5.792;2023-04-16T02:44:41;97.07;;;41.10;;
53309;SDS011;39197;53.200;5.792;2023-04-16T02:47:06;103.28;;;44.03;;
53309;SDS011;39197;53.200;5.792;2023-04-16T02:49:32;94.40;;;42.13;;
53309;SDS011;39197;53.200;5.792;2023-04-16T02:51:59;80.32;;;36.30;;
53309;SDS011;39197;53.200;5.792;2023-04-16T02:54:25;82.60;;;34.50;;
53309;SDS011;39197;53.200;5.792;2023-04-16T02:56:50;91.28;;;35.55;;
53309;SDS011;39197;53.200;5.792;2023-04-16T02:59:16;78.80;;;30.92;;
53309;SDS011;39197;53.200;5.792;2023-04-16T03:01:42;87.55;;;33.05;;
53309;SDS011;39197;53.200;5.792;2023-04-16T03:04:07;100.55;;;44.65;;
53309;SDS011;39197;53.200;5.792;2023-04-16T03:06:33;80.50;;;37.38;;
53309;SDS011;39197;53.200;5.792;2023-04-16T03:08:58;89.40;;;41.17;;
53309;SDS011;39197;53.200;5.792;2023-04-16T03:11:24;85.88;;;38.15;;
53309;SDS011;39197;53.200;5.792;2023-04-16T03:13:50;89.80;;;38.50;;
53309;SDS011;39197;53.200;5.792;2023-04-16T03:16:15;96.35;;;37.83;;
53309;SDS011;39197;53.200;5.792;2023-04-16T03:18:41;94.50;;;37.72;;
53309;SDS011;39197;53.200;5.792;2023-04-16T03:21:06;102.18;;;38.05;;
53309;SDS011;39197;53.200;5.792;2023-04-16T03:23:32;86.22;;;35.65;;
53309;SDS011;39197;53.200;5.792;2023-04-16T03:25:58;90.03;;;39.70;;
53309;SDS011;39197;53.200;5.792;2023-04-16T03:28:23;95.03;;;39.50;;
53309;SDS011;39197;53.200;5.792;2023-04-16T03:30:50;88.60;;;34.67;;
53309;SDS011;39197;53.200;5.792;2023-04-16T03:33:16;94.30;;;37.83;;
53309;SDS011;39197;53.200;5.792;2023-04-16T03:35:42;81.50;;;35.15;;
53309;SDS011;39197;53.200;5.792;2023-04-16T03:38:08;88.72;;;36.63;;
53309;SDS011;39197;53.200;5.792;2023-04-16T03:40:34;86.85;;;33.58;;
53309;SDS011;39197;53.200;5.792;2023-04-16T03:42:59;97.00;;;37.65;;
53309;SDS011;39197;53.200;5.792;2023-04-16T03:45:25;89.53;;;35.92;;
53309;SDS011;39197;53.200;5.792;2023-04-16T03:47:50;97.60;;;37.17;;
53309;SDS011;39197;53.200;5.792;2023-04-16T03:50:17;94.45;;;35.63;;
53309;SDS011;39197;53.200;5.792;2023-04-16T03:52:43;83.47;;;33.03;;
53309;SDS011;39197;53.200;5.792;2023-04-16T03:55:10;76.22;;;33.55;;
53309;SDS011;39197;53.200;5.792;2023-04-16T03:57:37;87.70;;;32.72;;
53309;SDS011;39197;53.200;5.792;2023-04-16T04:00:02;77.43;;;30.23;;
53309;SDS011;39197;53.200;5.792;2023-04-16T04:02:28;67.90;;;29.88;;
53309;SDS011;39197;53.200;5.792;2023-04-16T04:04:54;82.72;;;31.25;;
53309;SDS011;39197;53.200;5.792;2023-04-16T04:07:20;67.68;;;31.60;;
53309;SDS011;39197;53.200;5.792;2023-04-16T04:09:45;67.93;;;30.17;;
53309;SDS011;39197;53.200;5.792;2023-04-16T04:12:11;80.03;;;30.38;;
53309;SDS011;39197;53.200;5.792;2023-04-16T04:14:37;87.93;;;31.38;;
53309;SDS011;39197;53.200;5.792;2023-04-16T04:17:04;81.07;;;31.55;;
53309;SDS011;39197;53.200;5.792;2023-04-16T04:19:30;81.80;;;32.75;;
53309;SDS011;39197;53.200;5.792;2023-04-16T04:21:56;85.40;;;33.63;;
53309;SDS011;39197;53.200;5.792;2023-04-16T04:24:21;92.32;;;33.92;;
53309;SDS011;39197;53.200;5.792;2023-04-16T04:26:47;77.65;;;31.75;;
53309;SDS011;39197;53.200;5.792;2023-04-16T04:29:12;82.93;;;30.45;;
53309;SDS011;39197;53.200;5.792;2023-04-16T04:31:38;77.57;;;29.80;;
53309;SDS011;39197;53.200;5.792;2023-04-16T04:34:03;78.35;;;27.85;;
53309;SDS011;39197;53.200;5.792;2023-04-16T04:36:29;75.53;;;29.08;;
53309;SDS011;39197;53.200;5.792;2023-04-16T04:38:55;72.25;;;28.30;;
53309;SDS011;39197;53.200;5.792;2023-04-16T04:41:20;68.97;;;28.50;;
53309;SDS011;39197;53.200;5.792;2023-04-16T04:43:46;75.47;;;27.20;;
53309;SDS011;39197;53.200;5.792;2023-04-16T04:46:11;77.18;;;27.67;;
53309;SDS011;39197;53.200;5.792;2023-04-16T04:48:37;80.88;;;24.92;;
53309;SDS011;39197;53.200;5.792;2023-04-16T04:51:03;69.05;;;24.73;;
53309;SDS011;39197;53.200;5.792;2023-04-16T04:53:28;75.38;;;22.75;;
53309;SDS011;39197;53.200;5.792;2023-04-16T04:55:54;68.75;;;22.98;;
53309;SDS011;39197;53.200;5.792;2023-04-16T04:58:20;74.72;;;22.50;;
53309;SDS011;39197;53.200;5.792;2023-04-16T05:00:45;71.00;;;22.70;;
53309;SDS011;39197;53.200;5.792;2023-04-16T05:03:11;75.93;;;21.52;;
53309;SDS011;39197;53.200;5.792;2023-04-16T05:05:37;80.38;;;22.23;;
53309;SDS011;39197;53.200;5.792;2023-04-16T05:08:04;76.97;;;21.27;;
53309;SDS011;39197;53.200;5.792;2023-04-16T05:10:30;72.22;;;22.27;;
53309;SDS011;39197;53.200;5.792;2023-04-16T05:12:56;72.35;;;22.48;;
53309;SDS011;39197;53.200;5.792;2023-04-16T05:15:21;68.50;;;22.75;;
53309;SDS011;39197;53.200;5.792;2023-04-16T05:17:47;80.00;;;24.65;;
53309;SDS011;39197;53.200;5.792;2023-04-16T05:20:12;68.88;;;22.60;;
53309;SDS011;39197;53.200;5.792;2023-04-16T05:22:38;65.22;;;22.80;;
53309;SDS011;39197;53.200;5.792;2023-04-16T05:25:04;73.28;;;23.27;;
53309;SDS011;39197;53.200;5.792;2023-04-16T05:27:30;75.97;;;22.92;;
53309;SDS011;39197;53.200;5.792;2023-04-16T05:29:55;73.88;;;22.65;;
53309;SDS011;39197;53.200;5.792;2023-04-16T05:32:23;83.05;;;23.73;;
53309;SDS011;39197;53.200;5.792;2023-04-16T05:34:50;87.25;;;25.70;;
53309;SDS011;39197;53.200;5.792;2023-04-16T05:37:15;77.82;;;23.77;;
53309;SDS011;39197;53.200;5.792;2023-04-16T05:39:41;76.18;;;26.65;;
53309;SDS011;39197;53.200;5.792;2023-04-16T05:42:06;73.40;;;27.50;;
53309;SDS011;39197;53.200;5.792;2023-04-16T05:44:32;66.38;;;25.55;;
53309;SDS011;39197;53.200;5.792;2023-04-16T05:46:58;81.57;;;26.67;;
53309;SDS011;39197;53.200;5.792;2023-04-16T05:49:25;78.82;;;28.63;;
53309;SDS011;39197;53.200;5.792;2023-04-16T05:51:50;76.00;;;25.65;;
53309;SDS011;39197;53.200;5.792;2023-04-16T05:54:16;63.88;;;25.13;;
53309;SDS011;39197;53.200;5.792;2023-04-16T05:56:41;59.90;;;23.73;;
53309;SDS011;39197;53.200;5.792;2023-04-16T05:59:07;64.55;;;24.55;;
53309;SDS011;39197;53.200;5.792;2023-04-16T06:01:32;59.33;;;22.38;;
53309;SDS011;39197;53.200;5.792;2023-04-16T06:03:58;71.28;;;23.08;;
53309;SDS011;39197;53.200;5.792;2023-04-16T06:06:24;77.18;;;25.15;;
53309;SDS011;39197;53.200;5.792;2023-04-16T06:08:51;72.32;;;26.35;;
53309;SDS011;39197;53.200;5.792;2023-04-16T06:11:17;73.07;;;24.85;;
53309;SDS011;39197;53.200;5.792;2023-04-16T06:13:43;77.45;;;26.08;;
53309;SDS011;39197;53.200;5.792;2023-04-16T06:16:08;89.32;;;28.52;;
53309;SDS011;39197;53.200;5.792;2023-04-16T06:18:34;85.78;;;26.15;;
53309;SDS011;39197;53.200;5.792;2023-04-16T06:21:00;80.57;;;27.38;;
53309;SDS011;39197;53.200;5.792;2023-04-16T06:23:25;72.18;;;23.25;;
53309;SDS011;39197;53.200;5.792;2023-04-16T06:25:51;72.05;;;23.38;;
53309;SDS011;39197;53.200;5.792;2023-04-16T06:28:17;71.45;;;22.33;;
53309;SDS011;39197;53.200;5.792;2023-04-16T06:30:42;66.88;;;24.02;;
53309;SDS011;39197;53.200;5.792;2023-04-16T06:33:08;54.53;;;22.80;;
53309;SDS011;39197;53.200;5.792;2023-04-16T06:35:33;53.05;;;21.67;;
53309;SDS011;39197;53.200;5.792;2023-04-16T06:37:59;59.08;;;21.70;;
53309;SDS011;39197;53.200;5.792;2023-04-16T06:40:25;54.75;;;22.50;;
53309;SDS011;39197;53.200;5.792;2023-04-16T06:42:51;61.92;;;22.92;;
53309;SDS011;39197;53.200;5.792;2023-04-16T06:45:16;54.33;;;21.73;;
53309;SDS011;39197;53.200;5.792;2023-04-16T06:47:42;55.50;;;21.63;;
53309;SDS011;39197;53.200;5.792;2023-04-16T06:50:07;70.60;;;22.52;;
53309;SDS011;39197;53.200;5.792;2023-04-16T06:52:33;64.88;;;22.38;;
53309;SDS011;39197;53.200;5.792;2023-04-16T06:55:00;49.83;;;21.13;;
53309;SDS011;39197;53.200;5.792;2023-04-16T06:57:27;50.38;;;17.35;;
53309;SDS011;39197;53.200;5.792;2023-04-16T06:59:52;54.08;;;18.70;;
53309;SDS011;39197;53.200;5.792;2023-04-16T07:02:18;53.65;;;19.17;;
53309;SDS011;39197;53.200;5.792;2023-04-16T07:04:43;52.92;;;18.50;;
53309;SDS011;39197;53.200;5.792;2023-04-16T07:07:09;50.97;;;18.92;;
53309;SDS011;39197;53.200;5.792;2023-04-16T07:09:35;46.55;;;16.23;;
53309;SDS011;39197;53.200;5.792;2023-04-16T07:12:00;36.75;;;15.85;;
53309;SDS011;39197;53.200;5.792;2023-04-16T07:14:26;48.42;;;16.55;;
53309;SDS011;39197;53.200;5.792;2023-04-16T07:16:51;48.33;;;17.58;;
53309;SDS011;39197;53.200;5.792;2023-04-16T07:19:17;48.38;;;16.73;;
53309;SDS011;39197;53.200;5.792;2023-04-16T07:21:42;45.70;;;16.40;;
53309;SDS011;39197;53.200;5.792;2023-04-16T07:24:09;45.55;;;17.92;;
53309;SDS011;39197;53.200;5.792;2023-04-16T07:26:38;39.33;;;14.57;;
53309;SDS011;39197;53.200;5.792;2023-04-16T07:29:03;39.90;;;15.63;;
53309;SDS011;39197;53.200;5.792;2023-04-16T07:31:29;39.67;;;15.27;;
53309;SDS011;39197;53.200;5.792;2023-04-16T07:33:55;36.40;;;15.50;;
53309;SDS011;39197;53.200;5.792;2023-04-16T07:36:21;47.03;;;15.98;;
53309;SDS011;39197;53.200;5.792;2023-04-16T07:38:47;40.50;;;16.00;;
53309;SDS011;39197;53.200;5.792;2023-04-16T07:41:13;37.65;;;14.68;;
53309;SDS011;39197;53.200;5.792;2023-04-16T07:43:39;43.15;;;17.13;;
53309;SDS011;39197;53.200;5.792;2023-04-16T07:46:05;49.38;;;17.70;;
53309;SDS011;39197;53.200;5.792;2023-04-16T07:48:30;36.92;;;16.80;;
53309;SDS011;39197;53.200;5.792;2023-04-16T07:50:56;42.35;;;16.80;;
53309;SDS011;39197;53.200;5.792;2023-04-16T07:53:22;44.03;;;15.95;;
53309;SDS011;39197;53.200;5.792;2023-04-16T07:55:47;46.13;;;17.42;;
53309;SDS011;39197;53.200;5.792;2023-04-16T07:58:13;45.97;;;16.60;;
53309;SDS011;39197;53.200;5.792;2023-04-16T08:00:39;59.65;;;18.77;;
53309;SDS011;39197;53.200;5.792;2023-04-16T08:03:04;50.17;;;18.02;;
53309;SDS011;39197;53.200;5.792;2023-04-16T08:05:30;51.53;;;18.23;;
53309;SDS011;39197;53.200;5.792;2023-04-16T08:07:56;46.13;;;16.45;;
53309;SDS011;39197;53.200;5.792;2023-04-16T08:10:21;40.67;;;14.93;;
53309;SDS011;39197;53.200;5.792;2023-04-16T08:12:47;42.58;;;15.27;;
53309;SDS011;39197;53.200;5.792;2023-04-16T08:15:12;45.20;;;15.80;;
53309;SDS011;39197;53.200;5.792;2023-04-16T08:17:38;37.67;;;15.57;;
53309;SDS011;39197;53.200;5.792;2023-04-16T08:20:04;48.78;;;16.83;;
53309;SDS011;39197;53.200;5.792;2023-04-16T08:22:31;48.53;;;16.20;;
53309;SDS011;39197;53.200;5.792;2023-04-16T08:24:57;47.25;;;16.70;;
53309;SDS011;39197;53.200;5.792;2023-04-16T08:27:22;51.33;;;17.05;;
53309;SDS011;39197;53.200;5.792;2023-04-16T08:29:48;45.38;;;16.05;;
53309;SDS011;39197;53.200;5.792;2023-04-16T08:32:14;45.58;;;15.38;;
53309;SDS011;39197;53.200;5.792;2023-04-16T08:34:40;41.00;;;15.02;;
53309;SDS011;39197;53.200;5.792;2023-04-16T08:37:06;40.13;;;15.63;;
53309;SDS011;39197;53.200;5.792;2023-04-16T08:39:31;46.58;;;18.40;;
53309;SDS011;39197;53.200;5.792;2023-04-16T08:41:57;47.03;;;15.27;;
53309;SDS011;39197;53.200;5.792;2023-04-16T08:44:25;44.58;;;17.02;;
53309;SDS011;39197;53.200;5.792;2023-04-16T08:46:55;47.20;;;16.45;;
53309;SDS011;39197;53.200;5.792;2023-04-16T08:49:23;46.22;;;15.15;;
53309;SDS011;39197;53.200;5.792;2023-04-16T08:51:52;44.22;;;15.98;;
53309;SDS011;39197;53.200;5.792;2023-04-16T08:56:50;45.35;;;17.20;;
53309;SDS011;39197;53.200;5.792;2023-04-16T08:59:16;42.97;;;16.60;;
53309;SDS011;39197;53.200;5.792;2023-04-16T09:01:42;40.30;;;15.52;;
53309;SDS011;39197;53.200;5.792;2023-04-16T09:04:09;41.45;;;15.43;;
53309;SDS011;39197;53.200;5.792;2023-04-16T09:06:35;37.75;;;14.63;;
53309;SDS011;39197;53.200;5.792;2023-04-16T09:09:02;45.60;;;16.83;;
53309;SDS011;39197;53.200;5.792;2023-04-16T09:11:28;37.35;;;15.50;;
53309;SDS011;39197;53.200;5.792;2023-04-16T09:13:54;45.28;;;15.77;;
53309;SDS011;39197;53.200;5.792;2023-04-16T09:16:21;38.72;;;15.02;;
53309;SDS011;39197;53.200;5.792;2023-04-16T09:18:48;36.50;;;15.25;;
53309;SDS011;39197;53.200;5.792;2023-04-16T09:21:15;46.92;;;19.63;;
53309;SDS011;39197;53.200;5.792;2023-04-16T09:23:41;32.50;;;15.52;;
53309;SDS011;39197;53.200;5.792;2023-04-16T09:26:07;36.17;;;16.15;;
53309;SDS011;39197;53.200;5.792;2023-04-16T09:28:44;29.17;;;14.40;;
53309;SDS011;39197;53.200;5.792;2023-04-16T09:31:14;39.53;;;16.33;;
53309;SDS011;39197;53.200;5.792;2023-04-16T09:33:41;37.00;;;14.93;;
53309;SDS011;39197;53.200;5.792;2023-04-16T09:36:07;42.75;;;16.77;;
53309;SDS011;39197;53.200;5.792;2023-04-16T09:38:49;38.42;;;15.68;;
53309;SDS011;39197;53.200;5.792;2023-04-16T09:41:17;32.80;;;13.18;;
53309;SDS011;39197;53.200;5.792;2023-04-16T09:44:17;32.75;;;14.85;;
53309;SDS011;39197;53.200;5.792;2023-04-16T09:46:39;34.03;;;13.52;;
53309;SDS011;39197;53.200;5.792;2023-04-16T09:49:09;28.92;;;13.18;;
53309;SDS011;39197;53.200;5.792;2023-04-16T09:51:41;39.67;;;16.02;;
53309;SDS011;39197;53.200;5.792;2023-04-16T09:54:08;30.80;;;13.52;;
53309;SDS011;39197;53.200;5.792;2023-04-16T09:56:44;32.00;;;12.48;;
53309;SDS011;39197;53.200;5.792;2023-04-16T09:59:20;35.65;;;14.52;;
53309;SDS011;39197;53.200;5.792;2023-04-16T10:01:47;30.58;;;14.35;;
53309;SDS011;39197;53.200;5.792;2023-04-16T10:04:13;36.08;;;15.38;;
53309;SDS011;39197;53.200;5.792;2023-04-16T10:06:39;37.25;;;13.25;;
53309;SDS011;39197;53.200;5.792;2023-04-16T10:09:05;37.17;;;14.40;;
53309;SDS011;39197;53.200;5.792;2023-04-16T10:11:32;33.53;;;14.68;;
53309;SDS011;39197;53.200;5.792;2023-04-16T10:13:59;43.90;;;14.18;;
53309;SDS011;39197;53.200;5.792;2023-04-16T10:16:25;38.40;;;13.98;;
53309;SDS011;39197;53.200;5.792;2023-04-16T10:18:51;34.95;;;14.43;;
53309;SDS011;39197;53.200;5.792;2023-04-16T10:21:20;39.97;;;15.55;;
53309;SDS011;39197;53.200;5.792;2023-04-16T10:23:46;40.85;;;14.95;;
53309;SDS011;39197;53.200;5.792;2023-04-16T10:26:16;35.13;;;14.18;;
53309;SDS011;39197;53.200;5.792;2023-04-16T10:28:42;38.75;;;15.75;;
53309;SDS011;39197;53.200;5.792;2023-04-16T10:31:09;38.97;;;15.73;;
53309;SDS011;39197;53.200;5.792;2023-04-16T10:33:38;34.33;;;15.73;;
53309;SDS011;39197;53.200;5.792;2023-04-16T10:36:11;31.52;;;16.02;;
53309;SDS011;39197;53.200;5.792;2023-04-16T10:38:59;29.60;;;16.25;;
53309;SDS011;39197;53.200;5.792;2023-04-16T10:41:25;32.05;;;16.42;;
53309;SDS011;39197;53.200;5.792;2023-04-16T10:43:51;29.85;;;16.13;;
53309;SDS011;39197;53.200;5.792;2023-04-16T10:46:21;36.13;;;17.83;;
53309;SDS011;39197;53.200;5.792;2023-04-16T10:48:54;30.60;;;15.27;;
53309;SDS011;39197;53.200;5.792;2023-04-16T10:51:28;35.53;;;15.35;;
53309;SDS011;39197;53.200;5.792;2023-04-16T10:56:32;36.85;;;16.15;;
53309;SDS011;39197;53.200;5.792;2023-04-16T10:58:59;35.30;;;15.15;;
53309;SDS011;39197;53.200;5.792;2023-04-16T11:01:29;27.55;;;16.25;;
53309;SDS011;39197;53.200;5.792;2023-04-16T11:03:59;32.65;;;16.02;;
53309;SDS011;39197;53.200;5.792;2023-04-16T11:10:12;43.05;;;16.10;;
53309;SDS011;39197;53.200;5.792;2023-04-16T11:20:06;30.05;;;13.13;;
53309;SDS011;39197;53.200;5.792;2023-04-16T11:22:36;38.55;;;14.18;;
53309;SDS011;39197;53.200;5.792;2023-04-16T11:25:02;39.75;;;15.85;;
53309;SDS011;39197;53.200;5.792;2023-04-16T11:27:29;39.22;;;17.85;;
53309;SDS011;39197;53.200;5.792;2023-04-16T11:29:57;39.17;;;16.75;;
53309;SDS011;39197;53.200;5.792;2023-04-16T11:32:32;35.78;;;15.63;;
53309;SDS011;39197;53.200;5.792;2023-04-16T11:34:59;34.67;;;17.02;;
53309;SDS011;39197;53.200;5.792;2023-04-16T11:37:31;32.97;;;16.45;;
53309;SDS011;39197;53.200;5.792;2023-04-16T11:39:58;35.13;;;17.75;;
53309;SDS011;39197;53.200;5.792;2023-04-16T11:42:25;30.50;;;16.08;;
53309;SDS011;39197;53.200;5.792;2023-04-16T11:44:52;29.10;;;17.42;;
53309;SDS011;39197;53.200;5.792;2023-04-16T11:47:19;32.15;;;16.60;;
53309;SDS011;39197;53.200;5.792;2023-04-16T11:49:47;32.30;;;16.60;;
53309;SDS011;39197;53.200;5.792;2023-04-16T11:52:13;35.92;;;17.60;;
53309;SDS011;39197;53.200;5.792;2023-04-16T11:54:52;29.45;;;15.88;;
53309;SDS011;39197;53.200;5.792;2023-04-16T11:57:22;34.83;;;17.10;;
53309;SDS011;39197;53.200;5.792;2023-04-16T11:59:52;30.80;;;17.92;;
53309;SDS011;39197;53.200;5.792;2023-04-16T12:05:04;33.53;;;17.42;;
53309;SDS011;39197;53.200;5.792;2023-04-16T12:07:42;33.42;;;18.13;;
53309;SDS011;39197;53.200;5.792;2023-04-16T12:10:10;29.95;;;15.40;;
53309;SDS011;39197;53.200;5.792;2023-04-16T12:12:35;25.90;;;15.68;;
53309;SDS011;39197;53.200;5.792;2023-04-16T12:15:01;27.42;;;14.38;;
53309;SDS011;39197;53.200;5.792;2023-04-16T12:17:30;32.17;;;16.08;;
53309;SDS011;39197;53.200;5.792;2023-04-16T12:19:58;35.85;;;16.35;;
53309;SDS011;39197;53.200;5.792;2023-04-16T12:22:25;30.92;;;17.05;;
53309;SDS011;39197;53.200;5.792;2023-04-16T12:24:59;27.27;;;14.80;;
53309;SDS011;39197;53.200;5.792;2023-04-16T12:30:23;29.60;;;16.08;;
53309;SDS011;39197;53.200;5.792;2023-04-16T12:32:53;26.77;;;15.57;;
53309;SDS011;39197;53.200;5.792;2023-04-16T12:35:38;25.58;;;15.77;;
53309;SDS011;39197;53.200;5.792;2023-04-16T12:38:05;27.13;;;15.48;;
53309;SDS011;39197;53.200;5.792;2023-04-16T12:40:32;30.67;;;16.88;;
53309;SDS011;39197;53.200;5.792;2023-04-16T12:42:58;26.48;;;15.93;;
53309;SDS011;39197;53.200;5.792;2023-04-16T12:45:23;26.40;;;16.48;;
53309;SDS011;39197;53.200;5.792;2023-04-16T12:47:50;33.38;;;18.25;;
53309;SDS011;39197;53.200;5.792;2023-04-16T12:50:16;29.42;;;18.00;;
53309;SDS011;39197;53.200;5.792;2023-04-16T12:52:42;29.98;;;14.73;;
53309;SDS011;39197;53.200;5.792;2023-04-16T12:55:07;23.42;;;15.43;;
53309;SDS011;39197;53.200;5.792;2023-04-16T12:57:33;24.05;;;15.63;;
53309;SDS011;39197;53.200;5.792;2023-04-16T12:59:59;31.40;;;18.02;;
53309;SDS011;39197;53.200;5.792;2023-04-16T13:02:25;25.52;;;16.23;;
53309;SDS011;39197;53.200;5.792;2023-04-16T13:04:52;25.17;;;15.82;;
53309;SDS011;39197;53.200;5.792;2023-04-16T13:07:18;22.80;;;15.90;;
53309;SDS011;39197;53.200;5.792;2023-04-16T13:09:44;24.20;;;16.60;;
53309;SDS011;39197;53.200;5.792;2023-04-16T13:12:11;28.02;;;16.92;;
53309;SDS011;39197;53.200;5.792;2023-04-16T13:14:37;27.30;;;15.43;;
53309;SDS011;39197;53.200;5.792;2023-04-16T13:17:02;31.88;;;18.92;;
53309;SDS011;39197;53.200;5.792;2023-04-16T13:19:31;24.65;;;16.00;;
53309;SDS011;39197;53.200;5.792;2023-04-16T13:21:57;29.13;;;15.75;;
53309;SDS011;39197;53.200;5.792;2023-04-16T13:24:23;29.65;;;16.65;;
53309;SDS011;39197;53.200;5.792;2023-04-16T13:26:50;24.35;;;15.18;;
53309;SDS011;39197;53.200;5.792;2023-04-16T13:29:20;27.90;;;15.15;;
53309;SDS011;39197;53.200;5.792;2023-04-16T13:31:46;24.10;;;15.98;;
53309;SDS011;39197;53.200;5.792;2023-04-16T13:34:12;25.80;;;15.15;;
53309;SDS011;39197;53.200;5.792;2023-04-16T13:36:37;26.75;;;14.48;;
53309;SDS011;39197;53.200;5.792;2023-04-16T13:39:03;29.00;;;15.30;;
53309;SDS011;39197;53.200;5.792;2023-04-16T13:41:34;31.27;;;17.67;;
53309;SDS011;39197;53.200;5.792;2023-04-16T13:44:00;27.73;;;16.27;;
53309;SDS011;39197;53.200;5.792;2023-04-16T13:46:26;25.40;;;15.02;;
53309;SDS011;39197;53.200;5.792;2023-04-16T13:48:53;27.63;;;14.80;;
53309;SDS011;39197;53.200;5.792;2023-04-16T13:51:18;29.80;;;16.90;;
53309;SDS011;39197;53.200;5.792;2023-04-16T13:53:44;29.85;;;15.82;;
53309;SDS011;39197;53.200;5.792;2023-04-16T13:56:10;26.83;;;15.63;;
53309;SDS011;39197;53.200;5.792;2023-04-16T13:58:36;24.00;;;15.80;;
53309;SDS011;39197;53.200;5.792;2023-04-16T14:01:02;25.67;;;15.55;;
53309;SDS011;39197;53.200;5.792;2023-04-16T14:03:28;25.67;;;15.50;;
53309;SDS011;39197;53.200;5.792;2023-04-16T14:05:53;28.13;;;19.40;;
53309;SDS011;39197;53.200;5.792;2023-04-16T14:08:19;27.92;;;16.42;;
53309;SDS011;39197;53.200;5.792;2023-04-16T14:10:45;24.67;;;14.90;;
53309;SDS011;39197;53.200;5.792;2023-04-16T14:13:11;23.98;;;15.98;;
53309;SDS011;39197;53.200;5.792;2023-04-16T14:15:37;24.08;;;15.95;;
53309;SDS011;39197;53.200;5.792;2023-04-16T14:18:03;26.98;;;16.17;;
53309;SDS011;39197;53.200;5.792;2023-04-16T14:20:29;24.13;;;16.77;;
53309;SDS011;39197;53.200;5.792;2023-04-16T14:22:55;25.98;;;19.83;;
53309;SDS011;39197;53.200;5.792;2023-04-16T14:25:21;26.40;;;15.60;;
53309;SDS011;39197;53.200;5.792;2023-04-16T14:27:47;29.38;;;17.17;;
53309;SDS011;39197;53.200;5.792;2023-04-16T14:30:13;28.73;;;15.57;;
53309;SDS011;39197;53.200;5.792;2023-04-16T14:32:38;24.85;;;16.38;;
53309;SDS011;39197;53.200;5.792;2023-04-16T14:35:04;29.20;;;17.05;;
53309;SDS011;39197;53.200;5.792;2023-04-16T14:37:30;28.13;;;17.10;;
53309;SDS011;39197;53.200;5.792;2023-04-16T14:39:59;33.30;;;18.48;;